sensor_id;sensor_type;location;lat;lon;timestamp;pressure;altitude;pressure_sealevel;temperature;humidity
69086;BME280;56186;59.144;37.936;2022-09-02T00:01:00;99080.16;;;9.18;71.99
69086;BME280;56186;59.144;37.936;2022-09-02T00:03:28;99103.13;;;9.27;72.34
69086;BME280;56186;59.144;37.936;2022-09-02T00:05:55;99088.69;;;9.04;72.83
69086;BME280;56186;59.144;37.936;2022-09-02T00:08:21;99082.91;;;8.99;72.96
69086;BME280;56186;59.144;37.936;2022-09-02T00:10:47;99078.50;;;9.00;72.79
69086;BME280;56186;59.144;37.936;2022-09-02T00:13:14;99095.78;;;9.18;72.65
69086;BME280;56186;59.144;37.936;2022-09-02T00:15:42;99104.22;;;9.23;72.79
69086;BME280;56186;59.144;37.936;2022-09-02T00:18:08;99080.41;;;9.13;72.77
69086;BME280;56186;59.144;37.936;2022-09-02T00:20:38;99133.06;;;9.36;72.63
69086;BME280;56186;59.144;37.936;2022-09-02T00:23:05;99124.41;;;9.35;72.53
69086;BME280;56186;59.144;37.936;2022-09-02T00:25:34;99092.09;;;9.22;72.74
69086;BME280;56186;59.144;37.936;2022-09-02T00:28:00;99131.53;;;9.32;72.96
69086;BME280;56186;59.144;37.936;2022-09-02T00:30:26;99086.19;;;9.18;72.92
69086;BME280;56186;59.144;37.936;2022-09-02T00:32:52;99112.22;;;9.36;72.72
69086;BME280;56186;59.144;37.936;2022-09-02T00:35:18;99105.59;;;9.30;72.68
69086;BME280;56186;59.144;37.936;2022-09-02T00:37:44;99087.06;;;9.19;72.80
69086;BME280;56186;59.144;37.936;2022-09-02T00:40:11;99071.53;;;9.00;72.68
69086;BME280;56186;59.144;37.936;2022-09-02T00:42:38;99090.81;;;9.13;72.65
69086;BME280;56186;59.144;37.936;2022-09-02T00:45:05;99105.56;;;9.14;72.83
69086;BME280;56186;59.144;37.936;2022-09-02T00:47:32;99102.19;;;9.12;72.48
69086;BME280;56186;59.144;37.936;2022-09-02T00:49:59;99117.94;;;9.27;72.73
69086;BME280;56186;59.144;37.936;2022-09-02T00:52:31;99104.06;;;9.26;72.85
69086;BME280;56186;59.144;37.936;2022-09-02T00:55:04;99072.47;;;8.99;72.69
69086;BME280;56186;59.144;37.936;2022-09-02T00:57:33;99103.75;;;9.32;72.66
69086;BME280;56186;59.144;37.936;2022-09-02T01:02:39;99123.84;;;9.46;72.49
69086;BME280;56186;59.144;37.936;2022-09-02T01:05:09;99107.44;;;9.44;72.40
69086;BME280;56186;59.144;37.936;2022-09-02T01:07:36;99115.94;;;9.48;72.51
69086;BME280;56186;59.144;37.936;2022-09-02T01:10:08;99114.09;;;9.50;72.60
69086;BME280;56186;59.144;37.936;2022-09-02T01:12:35;99115.53;;;9.40;72.60
69086;BME280;56186;59.144;37.936;2022-09-02T01:15:03;99115.28;;;9.44;73.03
69086;BME280;56186;59.144;37.936;2022-09-02T01:17:30;99085.56;;;9.31;72.60
69086;BME280;56186;59.144;37.936;2022-09-02T01:20:03;99115.59;;;9.54;72.76
69086;BME280;56186;59.144;37.936;2022-09-02T01:22:31;99113.00;;;9.54;72.82
69086;BME280;56186;59.144;37.936;2022-09-02T01:25:02;99125.38;;;9.50;72.88
69086;BME280;56186;59.144;37.936;2022-09-02T01:27:29;99084.63;;;9.32;72.71
69086;BME280;56186;59.144;37.936;2022-09-02T01:29:58;99115.94;;;9.48;72.78
69086;BME280;56186;59.144;37.936;2022-09-02T01:35:13;99045.09;;;9.08;72.61
69086;BME280;56186;59.144;37.936;2022-09-02T01:37:40;99121.16;;;9.48;72.68
69086;BME280;56186;59.144;37.936;2022-09-02T01:40:09;99103.50;;;9.37;72.61
69086;BME280;56186;59.144;37.936;2022-09-02T01:42:36;99098.66;;;9.29;72.48
69086;BME280;56186;59.144;37.936;2022-09-02T01:45:03;99133.59;;;9.43;72.76
69086;BME280;56186;59.144;37.936;2022-09-02T01:47:29;99064.72;;;8.98;72.38
69086;BME280;56186;59.144;37.936;2022-09-02T01:49:55;99125.00;;;9.41;72.38
69086;BME280;56186;59.144;37.936;2022-09-02T01:52:23;99142.19;;;9.45;72.58
69086;BME280;56186;59.144;37.936;2022-09-02T01:54:50;99144.97;;;9.42;72.51
69086;BME280;56186;59.144;37.936;2022-09-02T01:57:16;99136.38;;;9.40;72.58
69086;BME280;56186;59.144;37.936;2022-09-02T01:59:43;99122.75;;;9.34;72.57
69086;BME280;56186;59.144;37.936;2022-09-02T02:02:12;99132.00;;;9.40;72.58
69086;BME280;56186;59.144;37.936;2022-09-02T02:04:39;99133.59;;;9.43;72.45
69086;BME280;56186;59.144;37.936;2022-09-02T02:07:05;99129.81;;;9.32;72.41
69086;BME280;56186;59.144;37.936;2022-09-02T02:09:31;99131.66;;;9.30;72.31
69086;BME280;56186;59.144;37.936;2022-09-02T02:11:57;99119.34;;;9.16;72.40
69086;BME280;56186;59.144;37.936;2022-09-02T02:14:23;99115.53;;;9.06;72.65
69086;BME280;56186;59.144;37.936;2022-09-02T02:16:49;99092.63;;;8.95;72.63
69086;BME280;56186;59.144;37.936;2022-09-02T02:19:16;99137.25;;;9.23;72.76
69086;BME280;56186;59.144;37.936;2022-09-02T02:21:42;99141.38;;;9.27;72.75
69086;BME280;56186;59.144;37.936;2022-09-02T02:24:08;99155.19;;;9.29;72.63
69086;BME280;56186;59.144;37.936;2022-09-02T02:26:35;99094.38;;;8.95;72.67
69086;BME280;56186;59.144;37.936;2022-09-02T02:29:03;99120.41;;;9.12;72.66
69086;BME280;56186;59.144;37.936;2022-09-02T02:31:30;99121.25;;;9.13;72.41
69086;BME280;56186;59.144;37.936;2022-09-02T02:33:56;99150.91;;;9.28;72.50
69086;BME280;56186;59.144;37.936;2022-09-02T02:36:22;99120.66;;;9.08;72.26
69086;BME280;56186;59.144;37.936;2022-09-02T02:38:48;99156.00;;;9.29;72.42
69086;BME280;56186;59.144;37.936;2022-09-02T02:41:15;99166.31;;;9.32;72.24
69086;BME280;56186;59.144;37.936;2022-09-02T02:43:42;99167.97;;;9.33;72.17
69086;BME280;56186;59.144;37.936;2022-09-02T02:46:09;99165.19;;;9.36;72.29
69086;BME280;56186;59.144;37.936;2022-09-02T02:48:37;99139.09;;;9.21;71.98
69086;BME280;56186;59.144;37.936;2022-09-02T02:51:04;99142.38;;;9.24;72.10
69086;BME280;56186;59.144;37.936;2022-09-02T02:53:32;99172.94;;;9.38;72.30
69086;BME280;56186;59.144;37.936;2022-09-02T02:55:59;99174.97;;;9.33;72.02
69086;BME280;56186;59.144;37.936;2022-09-02T02:58:25;99163.94;;;9.28;72.24
69086;BME280;56186;59.144;37.936;2022-09-02T03:00:52;99174.97;;;9.33;72.26
69086;BME280;56186;59.144;37.936;2022-09-02T03:03:19;99156.25;;;9.25;71.88
69086;BME280;56186;59.144;37.936;2022-09-02T03:05:50;99163.16;;;9.26;72.11
69086;BME280;56186;59.144;37.936;2022-09-02T03:08:18;99186.81;;;9.38;71.81
69086;BME280;56186;59.144;37.936;2022-09-02T03:10:52;99177.16;;;9.41;72.15
69086;BME280;56186;59.144;37.936;2022-09-02T03:13:23;99186.91;;;9.37;72.01
69086;BME280;56186;59.144;37.936;2022-09-02T03:15:50;99172.59;;;9.28;71.89
69086;BME280;56186;59.144;37.936;2022-09-02T03:18:17;99188.81;;;9.33;71.74
69086;BME280;56186;59.144;37.936;2022-09-02T03:20:45;99187.94;;;9.34;71.94
69086;BME280;56186;59.144;37.936;2022-09-02T03:23:12;99187.28;;;9.29;72.02
69086;BME280;56186;59.144;37.936;2022-09-02T03:25:42;99195.66;;;9.36;71.95
69086;BME280;56186;59.144;37.936;2022-09-02T03:28:16;99183.31;;;9.22;71.97
69086;BME280;56186;59.144;37.936;2022-09-02T03:30:45;99112.09;;;8.88;71.74
69086;BME280;56186;59.144;37.936;2022-09-02T03:33:12;99149.09;;;9.12;71.82
69086;BME280;56186;59.144;37.936;2022-09-02T03:35:40;99192.13;;;9.37;71.42
69086;BME280;56186;59.144;37.936;2022-09-02T03:38:08;99198.00;;;9.41;71.80
69086;BME280;56186;59.144;37.936;2022-09-02T03:40:35;99177.81;;;9.28;71.69
69086;BME280;56186;59.144;37.936;2022-09-02T03:43:02;99206.59;;;9.43;71.29
69086;BME280;56186;59.144;37.936;2022-09-02T03:45:29;99210.16;;;9.42;71.40
69086;BME280;56186;59.144;37.936;2022-09-02T03:47:57;99202.56;;;9.37;71.56
69086;BME280;56186;59.144;37.936;2022-09-02T03:50:36;99194.59;;;9.23;71.47
69086;BME280;56186;59.144;37.936;2022-09-02T03:53:05;99184.16;;;9.23;71.59
69086;BME280;56186;59.144;37.936;2022-09-02T03:55:32;99215.34;;;9.42;71.46
69086;BME280;56186;59.144;37.936;2022-09-02T03:57:59;99190.75;;;9.30;71.64
69086;BME280;56186;59.144;37.936;2022-09-02T04:00:25;99222.41;;;9.40;71.58
69086;BME280;56186;59.144;37.936;2022-09-02T04:02:59;99191.69;;;9.29;71.69
69086;BME280;56186;59.144;37.936;2022-09-02T04:05:30;99222.00;;;9.47;71.47
69086;BME280;56186;59.144;37.936;2022-09-02T04:07:58;99221.16;;;9.47;71.52
69086;BME280;56186;59.144;37.936;2022-09-02T04:10:26;99190.97;;;9.25;71.71
69086;BME280;56186;59.144;37.936;2022-09-02T04:12:53;99199.25;;;9.33;71.51
69086;BME280;56186;59.144;37.936;2022-09-02T04:15:19;99248.78;;;9.51;71.31
69086;BME280;56186;59.144;37.936;2022-09-02T04:17:48;99197.06;;;9.26;71.49
69086;BME280;56186;59.144;37.936;2022-09-02T04:20:16;99234.44;;;9.42;71.59
69086;BME280;56186;59.144;37.936;2022-09-02T04:22:42;99249.09;;;9.45;71.62
69086;BME280;56186;59.144;37.936;2022-09-02T04:25:09;99244.94;;;9.41;71.57
69086;BME280;56186;59.144;37.936;2022-09-02T04:27:36;99221.13;;;9.31;71.64
69086;BME280;56186;59.144;37.936;2022-09-02T04:30:04;99242.09;;;9.45;71.57
69086;BME280;56186;59.144;37.936;2022-09-02T04:32:34;99213.13;;;9.34;71.57
69086;BME280;56186;59.144;37.936;2022-09-02T04:35:00;99245.88;;;9.57;71.66
69086;BME280;56186;59.144;37.936;2022-09-02T04:37:26;99237.59;;;9.49;71.69
69086;BME280;56186;59.144;37.936;2022-09-02T04:39:53;99220.63;;;9.40;71.51
69086;BME280;56186;59.144;37.936;2022-09-02T04:42:19;99229.22;;;9.42;71.61
69086;BME280;56186;59.144;37.936;2022-09-02T04:44:46;99266.50;;;9.62;71.32
69086;BME280;56186;59.144;37.936;2022-09-02T04:47:12;99254.03;;;9.67;71.45
69086;BME280;56186;59.144;37.936;2022-09-02T04:49:39;99259.91;;;9.70;71.46
69086;BME280;56186;59.144;37.936;2022-09-02T04:52:08;99245.22;;;9.69;71.42
69086;BME280;56186;59.144;37.936;2022-09-02T04:54:38;99240.97;;;9.51;71.45
69086;BME280;56186;59.144;37.936;2022-09-02T04:57:05;99274.56;;;9.57;71.58
69086;BME280;56186;59.144;37.936;2022-09-02T04:59:33;99236.28;;;9.40;71.43
69086;BME280;56186;59.144;37.936;2022-09-02T05:02:05;99249.50;;;9.37;71.31
69086;BME280;56186;59.144;37.936;2022-09-02T05:04:32;99275.47;;;9.38;71.51
69086;BME280;56186;59.144;37.936;2022-09-02T05:06:59;99283.44;;;9.35;71.92
69086;BME280;56186;59.144;37.936;2022-09-02T05:09:29;99281.31;;;9.44;71.88
69086;BME280;56186;59.144;37.936;2022-09-02T05:11:58;99277.78;;;9.45;71.63
69086;BME280;56186;59.144;37.936;2022-09-02T05:14:31;99270.41;;;9.35;71.61
69086;BME280;56186;59.144;37.936;2022-09-02T05:17:00;99286.34;;;9.47;71.84
69086;BME280;56186;59.144;37.936;2022-09-02T05:19:26;99264.44;;;9.33;71.84
69086;BME280;56186;59.144;37.936;2022-09-02T05:21:54;99294.78;;;9.52;71.37
69086;BME280;56186;59.144;37.936;2022-09-02T05:24:32;99267.56;;;9.40;71.68
69086;BME280;56186;59.144;37.936;2022-09-02T05:27:04;99298.03;;;9.57;71.45
69086;BME280;56186;59.144;37.936;2022-09-02T05:29:32;99294.66;;;9.55;71.40
69086;BME280;56186;59.144;37.936;2022-09-02T05:31:58;99296.31;;;9.56;71.51
69086;BME280;56186;59.144;37.936;2022-09-02T05:34:25;99301.22;;;9.62;71.30
69086;BME280;56186;59.144;37.936;2022-09-02T05:36:55;99288.13;;;9.46;71.74
69086;BME280;56186;59.144;37.936;2022-09-02T05:39:21;99306.69;;;9.57;71.56
69086;BME280;56186;59.144;37.936;2022-09-02T05:41:48;99312.44;;;9.64;71.28
69086;BME280;56186;59.144;37.936;2022-09-02T05:44:14;99297.72;;;9.46;71.65
69086;BME280;56186;59.144;37.936;2022-09-02T05:46:41;99317.34;;;9.53;71.62
69086;BME280;56186;59.144;37.936;2022-09-02T05:49:06;99307.31;;;9.28;71.77
69086;BME280;56186;59.144;37.936;2022-09-02T05:51:54;99319.13;;;9.35;71.86
69086;BME280;56186;59.144;37.936;2022-09-02T05:54:28;99324.91;;;9.23;72.02
69086;BME280;56186;59.144;37.936;2022-09-02T05:57:00;99336.22;;;9.23;72.58
69086;BME280;56186;59.144;37.936;2022-09-02T05:59:28;99331.50;;;9.30;72.41
69086;BME280;56186;59.144;37.936;2022-09-02T06:01:57;99316.81;;;9.29;72.39
69086;BME280;56186;59.144;37.936;2022-09-02T06:04:24;99315.56;;;9.18;72.08
69086;BME280;56186;59.144;37.936;2022-09-02T06:06:51;99350.06;;;9.41;72.30
69086;BME280;56186;59.144;37.936;2022-09-02T06:09:20;99340.34;;;9.45;71.97
69086;BME280;56186;59.144;37.936;2022-09-02T06:11:49;99327.84;;;9.51;71.86
69086;BME280;56186;59.144;37.936;2022-09-02T06:14:22;99305.38;;;9.31;72.14
69086;BME280;56186;59.144;37.936;2022-09-02T06:16:52;99317.13;;;9.40;71.74
69086;BME280;56186;59.144;37.936;2022-09-02T06:19:27;99344.72;;;9.62;71.88
69086;BME280;56186;59.144;37.936;2022-09-02T06:22:00;99327.63;;;9.56;71.89
69086;BME280;56186;59.144;37.936;2022-09-02T06:24:27;99359.59;;;9.77;71.89
69086;BME280;56186;59.144;37.936;2022-09-02T06:26:54;99330.97;;;9.75;71.39
69086;BME280;56186;59.144;37.936;2022-09-02T06:29:24;99367.25;;;9.97;71.54
69086;BME280;56186;59.144;37.936;2022-09-02T06:31:52;99363.19;;;9.92;71.31
69086;BME280;56186;59.144;37.936;2022-09-02T06:34:20;99377.69;;;9.97;71.58
69086;BME280;56186;59.144;37.936;2022-09-02T06:36:48;99380.22;;;9.99;71.34
69086;BME280;56186;59.144;37.936;2022-09-02T06:39:19;99359.75;;;9.91;71.39
69086;BME280;56186;59.144;37.936;2022-09-02T06:41:46;99357.69;;;9.80;71.34
69086;BME280;56186;59.144;37.936;2022-09-02T06:44:15;99375.09;;;9.80;71.11
69086;BME280;56186;59.144;37.936;2022-09-02T06:46:51;99386.13;;;9.85;71.06
69086;BME280;56186;59.144;37.936;2022-09-02T06:49:18;99398.47;;;9.82;71.45
69086;BME280;56186;59.144;37.936;2022-09-02T06:51:48;99398.19;;;9.88;71.41
69086;BME280;56186;59.144;37.936;2022-09-02T06:54:19;99407.56;;;9.92;71.42
69086;BME280;56186;59.144;37.936;2022-09-02T06:56:49;99388.50;;;9.72;71.28
69086;BME280;56186;59.144;37.936;2022-09-02T06:59:20;99426.97;;;9.86;71.42
69086;BME280;56186;59.144;37.936;2022-09-02T07:01:52;99407.00;;;9.85;71.34
69086;BME280;56186;59.144;37.936;2022-09-02T07:04:21;99406.19;;;9.85;71.31
69086;BME280;56186;59.144;37.936;2022-09-02T07:07:07;99369.19;;;9.59;71.26
69086;BME280;56186;59.144;37.936;2022-09-02T07:09:39;99426.13;;;9.86;71.24
69086;BME280;56186;59.144;37.936;2022-09-02T07:12:10;99431.56;;;9.81;71.00
69086;BME280;56186;59.144;37.936;2022-09-02T07:14:43;99431.13;;;9.73;71.17
69086;BME280;56186;59.144;37.936;2022-09-02T07:17:13;99432.03;;;9.72;71.73
69086;BME280;56186;59.144;37.936;2022-09-02T07:19:46;99402.19;;;9.60;71.23
69086;BME280;56186;59.144;37.936;2022-09-02T07:22:13;99398.03;;;9.73;71.23
69086;BME280;56186;59.144;37.936;2022-09-02T07:24:41;99447.38;;;9.78;71.06
69086;BME280;56186;59.144;37.936;2022-09-02T07:27:08;99417.06;;;9.58;71.45
69086;BME280;56186;59.144;37.936;2022-09-02T07:29:34;99445.84;;;9.74;71.49
69086;BME280;56186;59.144;37.936;2022-09-02T07:32:00;99433.41;;;9.79;71.67
69086;BME280;56186;59.144;37.936;2022-09-02T07:34:27;99377.56;;;9.48;71.19
69086;BME280;56186;59.144;37.936;2022-09-02T07:36:54;99453.50;;;9.94;71.17
69086;BME280;56186;59.144;37.936;2022-09-02T07:39:22;99452.91;;;9.89;70.90
69086;BME280;56186;59.144;37.936;2022-09-02T07:41:50;99443.31;;;9.90;71.18
69086;BME280;56186;59.144;37.936;2022-09-02T07:44:18;99432.19;;;9.86;71.07
69086;BME280;56186;59.144;37.936;2022-09-02T07:46:46;99430.97;;;9.93;71.10
69086;BME280;56186;59.144;37.936;2022-09-02T07:49:14;99446.22;;;10.01;70.79
69086;BME280;56186;59.144;37.936;2022-09-02T07:51:42;99466.28;;;10.18;70.95
69086;BME280;56186;59.144;37.936;2022-09-02T07:54:11;99462.56;;;10.22;70.80
69086;BME280;56186;59.144;37.936;2022-09-02T07:56:38;99478.78;;;10.29;70.54
69086;BME280;56186;59.144;37.936;2022-09-02T07:59:06;99474.47;;;10.28;70.41
69086;BME280;56186;59.144;37.936;2022-09-02T08:01:33;99482.69;;;10.37;70.30
69086;BME280;56186;59.144;37.936;2022-09-02T08:03:59;99490.16;;;10.45;70.23
69086;BME280;56186;59.144;37.936;2022-09-02T08:06:29;99494.84;;;10.38;69.73
69086;BME280;56186;59.144;37.936;2022-09-02T08:08:57;99508.13;;;10.34;69.92
69086;BME280;56186;59.144;37.936;2022-09-02T08:11:22;99500.03;;;10.21;69.94
69086;BME280;56186;59.144;37.936;2022-09-02T08:13:49;99507.56;;;10.27;70.19
69086;BME280;56186;59.144;37.936;2022-09-02T08:16:15;99490.53;;;10.20;70.03
69086;BME280;56186;59.144;37.936;2022-09-02T08:18:41;99483.84;;;10.14;70.00
69086;BME280;56186;59.144;37.936;2022-09-02T08:21:07;99513.81;;;10.25;70.31
69086;BME280;56186;59.144;37.936;2022-09-02T08:23:33;99507.28;;;10.16;70.46
69086;BME280;56186;59.144;37.936;2022-09-02T08:26:00;99524.59;;;10.36;70.25
69086;BME280;56186;59.144;37.936;2022-09-02T08:28:30;99495.44;;;10.26;70.14
69086;BME280;56186;59.144;37.936;2022-09-02T08:31:03;99512.59;;;10.49;69.94
69086;BME280;56186;59.144;37.936;2022-09-02T08:33:29;99528.69;;;10.57;69.92
69086;BME280;56186;59.144;37.936;2022-09-02T08:36:01;99552.97;;;10.59;69.67
69086;BME280;56186;59.144;37.936;2022-09-02T08:38:27;99538.53;;;10.52;69.74
69086;BME280;56186;59.144;37.936;2022-09-02T08:40:53;99497.13;;;10.27;69.30
69086;BME280;56186;59.144;37.936;2022-09-02T08:43:23;99538.59;;;10.51;69.36
69086;BME280;56186;59.144;37.936;2022-09-02T08:45:52;99545.13;;;10.42;69.48
69086;BME280;56186;59.144;37.936;2022-09-02T08:48:36;99527.44;;;10.31;69.29
69086;BME280;56186;59.144;37.936;2022-09-02T08:51:17;99548.38;;;10.30;69.46
69086;BME280;56186;59.144;37.936;2022-09-02T08:53:49;99551.97;;;10.45;69.34
69086;BME280;56186;59.144;37.936;2022-09-02T08:56:17;99550.19;;;10.28;69.53
69086;BME280;56186;59.144;37.936;2022-09-02T08:58:48;99576.09;;;10.32;69.41
69086;BME280;56186;59.144;37.936;2022-09-02T09:12:09;99596.28;;;10.29;69.28
69086;BME280;56186;59.144;37.936;2022-09-02T09:19:59;99622.44;;;10.63;69.50
69086;BME280;56186;59.144;37.936;2022-09-02T09:22:37;99593.41;;;10.70;69.07
69086;BME280;56186;59.144;37.936;2022-09-02T09:25:11;99580.88;;;10.76;68.96
69086;BME280;56186;59.144;37.936;2022-09-02T09:27:38;99631.19;;;10.97;68.55
69086;BME280;56186;59.144;37.936;2022-09-02T09:30:05;99606.03;;;10.95;68.07
69086;BME280;56186;59.144;37.936;2022-09-02T09:32:40;99605.41;;;10.90;68.42
69086;BME280;56186;59.144;37.936;2022-09-02T09:35:16;99586.69;;;10.81;68.07
69086;BME280;56186;59.144;37.936;2022-09-02T09:37:44;99604.03;;;10.82;68.07
69086;BME280;56186;59.144;37.936;2022-09-02T09:40:20;99621.81;;;10.93;68.00
69086;BME280;56186;59.144;37.936;2022-09-02T09:42:48;99625.13;;;10.97;68.28
69086;BME280;56186;59.144;37.936;2022-09-02T09:45:33;99613.50;;;10.85;68.06
69086;BME280;56186;59.144;37.936;2022-09-02T09:48:24;99646.03;;;10.79;67.85
69086;BME280;56186;59.144;37.936;2022-09-02T09:56:23;99639.41;;;10.55;68.13
69086;BME280;56186;59.144;37.936;2022-09-02T09:58:51;99624.44;;;10.58;68.37
69086;BME280;56186;59.144;37.936;2022-09-02T10:03:54;99639.03;;;10.97;67.54
69086;BME280;56186;59.144;37.936;2022-09-02T10:11:54;99658.56;;;11.23;67.21
69086;BME280;56186;59.144;37.936;2022-09-02T10:14:21;99649.47;;;11.15;67.41
69086;BME280;56186;59.144;37.936;2022-09-02T10:19:28;99635.03;;;11.23;67.28
69086;BME280;56186;59.144;37.936;2022-09-02T10:27:22;99672.66;;;11.54;67.38
69086;BME280;56186;59.144;37.936;2022-09-02T10:29:53;99667.69;;;11.65;67.14
69086;BME280;56186;59.144;37.936;2022-09-02T10:32:59;99669.94;;;11.73;67.23
69086;BME280;56186;59.144;37.936;2022-09-02T10:35:43;99689.59;;;11.80;66.81
69086;BME280;56186;59.144;37.936;2022-09-02T10:38:47;99704.38;;;11.81;66.91
69086;BME280;56186;59.144;37.936;2022-09-02T10:47:22;99696.78;;;11.43;66.68
69086;BME280;56186;59.144;37.936;2022-09-02T10:52:35;99704.03;;;11.72;66.48
69086;BME280;56186;59.144;37.936;2022-09-02T10:57:39;99695.44;;;11.85;66.83
69086;BME280;56186;59.144;37.936;2022-09-02T11:00:19;99688.19;;;11.91;66.43
69086;BME280;56186;59.144;37.936;2022-09-02T11:05:53;99699.19;;;12.13;66.19
69086;BME280;56186;59.144;37.936;2022-09-02T11:11:45;99723.75;;;12.26;65.82
69086;BME280;56186;59.144;37.936;2022-09-02T11:14:16;99743.81;;;12.27;65.85
69086;BME280;56186;59.144;37.936;2022-09-02T11:19:33;99741.50;;;12.05;65.89
69086;BME280;56186;59.144;37.936;2022-09-02T11:24:46;99739.22;;;11.99;66.44
69086;BME280;56186;59.144;37.936;2022-09-02T11:30:20;99754.44;;;12.24;65.97
69086;BME280;56186;59.144;37.936;2022-09-02T11:32:57;99738.06;;;12.05;65.96
69086;BME280;56186;59.144;37.936;2022-09-02T11:35:40;99753.00;;;12.03;66.19
69086;BME280;56186;59.144;37.936;2022-09-02T11:38:28;99755.19;;;11.95;66.29
69086;BME280;56186;59.144;37.936;2022-09-02T11:41:24;99761.19;;;11.79;66.19
69086;BME280;56186;59.144;37.936;2022-09-02T11:52:48;99779.81;;;11.22;68.08
69086;BME280;56186;59.144;37.936;2022-09-02T11:58:36;99761.66;;;11.19;68.14
69086;BME280;56186;59.144;37.936;2022-09-02T12:01:20;99794.34;;;11.45;68.34
69086;BME280;56186;59.144;37.936;2022-09-02T12:03:55;99801.28;;;11.46;68.57
69086;BME280;56186;59.144;37.936;2022-09-02T12:06:23;99778.34;;;11.34;68.47
69086;BME280;56186;59.144;37.936;2022-09-02T12:11:43;99807.88;;;11.54;67.83
69086;BME280;56186;59.144;37.936;2022-09-02T12:19:42;99805.97;;;11.57;67.56
69086;BME280;56186;59.144;37.936;2022-09-02T12:25:00;99830.59;;;11.53;67.60
69086;BME280;56186;59.144;37.936;2022-09-02T12:27:35;99836.28;;;11.44;67.77
69086;BME280;56186;59.144;37.936;2022-09-02T12:30:13;99822.44;;;11.42;67.77
69086;BME280;56186;59.144;37.936;2022-09-02T12:40:40;99853.59;;;11.64;67.73
69086;BME280;56186;59.144;37.936;2022-09-02T12:43:24;99831.81;;;11.63;67.42
69086;BME280;56186;59.144;37.936;2022-09-02T12:45:53;99849.41;;;11.77;67.22
69086;BME280;56186;59.144;37.936;2022-09-02T12:48:26;99846.44;;;11.67;66.95
69086;BME280;56186;59.144;37.936;2022-09-02T12:50:59;99866.28;;;11.72;66.54
69086;BME280;56186;59.144;37.936;2022-09-02T12:58:38;99870.38;;;11.60;67.29
69086;BME280;56186;59.144;37.936;2022-09-02T13:04:52;99875.06;;;11.71;67.34
69086;BME280;56186;59.144;37.936;2022-09-02T13:11:17;99832.19;;;11.38;67.70
69086;BME280;56186;59.144;37.936;2022-09-02T13:13:35;99878.13;;;11.79;67.64
69086;BME280;56186;59.144;37.936;2022-09-02T13:16:13;99860.28;;;11.70;67.90
69086;BME280;56186;59.144;37.936;2022-09-02T13:21:47;99885.81;;;11.82;67.69
69086;BME280;56186;59.144;37.936;2022-09-02T13:24:40;99899.00;;;11.80;67.82
69086;BME280;56186;59.144;37.936;2022-09-02T13:32:22;99904.25;;;11.80;67.94
69086;BME280;56186;59.144;37.936;2022-09-02T13:34:52;99904.00;;;11.85;67.88
69086;BME280;56186;59.144;37.936;2022-09-02T13:39:56;99915.31;;;11.85;68.12
69086;BME280;56186;59.144;37.936;2022-09-02T13:42:25;99910.81;;;11.89;68.01
69086;BME280;56186;59.144;37.936;2022-09-02T13:45:14;99930.78;;;11.92;67.83
69086;BME280;56186;59.144;37.936;2022-09-02T13:47:42;99923.81;;;11.91;67.71
69086;BME280;56186;59.144;37.936;2022-09-02T13:50:11;99913.78;;;11.81;67.79
69086;BME280;56186;59.144;37.936;2022-09-02T13:52:37;99923.19;;;11.85;67.84
69086;BME280;56186;59.144;37.936;2022-09-02T13:55:05;99934.81;;;11.80;67.88
69086;BME280;56186;59.144;37.936;2022-09-02T13:57:34;99920.19;;;11.76;67.75
69086;BME280;56186;59.144;37.936;2022-09-02T14:00:01;99931.78;;;11.70;67.81
69086;BME280;56186;59.144;37.936;2022-09-02T14:02:32;99929.13;;;11.72;67.76
69086;BME280;56186;59.144;37.936;2022-09-02T14:05:03;99918.66;;;11.72;67.76
69086;BME280;56186;59.144;37.936;2022-09-02T14:07:41;99911.69;;;11.71;67.89
69086;BME280;56186;59.144;37.936;2022-09-02T14:10:16;99932.03;;;11.83;67.75
69086;BME280;56186;59.144;37.936;2022-09-02T14:12:42;99946.75;;;11.85;67.95
69086;BME280;56186;59.144;37.936;2022-09-02T14:15:16;99953.81;;;11.83;67.47
69086;BME280;56186;59.144;37.936;2022-09-02T14:17:42;99920.41;;;11.71;67.78
69086;BME280;56186;59.144;37.936;2022-09-02T14:20:21;99932.28;;;11.78;67.58
69086;BME280;56186;59.144;37.936;2022-09-02T14:22:55;99940.72;;;11.83;67.50
69086;BME280;56186;59.144;37.936;2022-09-02T14:25:23;99944.28;;;11.82;67.44
69086;BME280;56186;59.144;37.936;2022-09-02T14:27:52;99941.25;;;11.73;67.36
69086;BME280;56186;59.144;37.936;2022-09-02T14:30:39;99945.66;;;11.72;67.60
69086;BME280;56186;59.144;37.936;2022-09-02T14:33:25;99954.13;;;11.77;67.71
69086;BME280;56186;59.144;37.936;2022-09-02T14:38:31;99957.28;;;11.84;67.59
69086;BME280;56186;59.144;37.936;2022-09-02T14:41:04;99953.66;;;11.86;67.48
69086;BME280;56186;59.144;37.936;2022-09-02T14:43:56;99919.72;;;11.67;67.60
69086;BME280;56186;59.144;37.936;2022-09-02T14:46:24;99962.19;;;11.92;67.80
69086;BME280;56186;59.144;37.936;2022-09-02T14:49:02;99954.16;;;11.95;67.22
69086;BME280;56186;59.144;37.936;2022-09-02T14:51:36;99935.50;;;11.83;67.28
69086;BME280;56186;59.144;37.936;2022-09-02T14:54:03;99946.53;;;11.90;66.59
69086;BME280;56186;59.144;37.936;2022-09-02T14:59:08;99939.06;;;11.82;66.91
69086;BME280;56186;59.144;37.936;2022-09-02T15:01:43;99963.56;;;11.99;66.73
69086;BME280;56186;59.144;37.936;2022-09-02T15:04:15;99973.88;;;12.02;66.97
69086;BME280;56186;59.144;37.936;2022-09-02T15:06:41;99958.09;;;12.03;66.65
69086;BME280;56186;59.144;37.936;2022-09-02T15:09:08;99953.25;;;11.96;66.46
69086;BME280;56186;59.144;37.936;2022-09-02T15:11:38;99972.88;;;12.04;66.44
69086;BME280;56186;59.144;37.936;2022-09-02T15:14:05;99940.72;;;11.83;66.44
69086;BME280;56186;59.144;37.936;2022-09-02T15:16:31;99978.56;;;11.95;66.43
69086;BME280;56186;59.144;37.936;2022-09-02T15:18:57;99952.16;;;11.82;66.38